sensor_id;sensor_type;location;lat;lon;timestamp;pressure;altitude;pressure_sealevel;temperature;humidity
5966;BME280;3009;43.224;27.976;2023-05-14T00:00:45;101174.03;;;9.55;86.21
5966;BME280;3009;43.224;27.976;2023-05-14T00:03:14;101171.09;;;9.56;85.61
5966;BME280;3009;43.224;27.976;2023-05-14T00:05:42;101174.28;;;9.58;85.02
5966;BME280;3009;43.224;27.976;2023-05-14T00:08:12;101171.09;;;9.56;83.81
5966;BME280;3009;43.224;27.976;2023-05-14T00:10:40;101174.09;;;9.50;83.76
5966;BME280;3009;43.224;27.976;2023-05-14T00:13:09;101172.78;;;9.47;82.71
5966;BME280;3009;43.224;27.976;2023-05-14T00:15:37;101169.09;;;9.38;82.39
5966;BME280;3009;43.224;27.976;2023-05-14T00:18:06;101166.19;;;9.34;81.82
5966;BME280;3009;43.224;27.976;2023-05-14T00:20:37;101175.03;;;9.35;81.26
5966;BME280;3009;43.224;27.976;2023-05-14T00:23:06;101176.38;;;9.32;81.83
5966;BME280;3009;43.224;27.976;2023-05-14T00:25:36;101185.00;;;9.24;81.91
5966;BME280;3009;43.224;27.976;2023-05-14T00:28:04;101180.41;;;9.30;81.13
5966;BME280;3009;43.224;27.976;2023-05-14T00:30:33;101181.22;;;9.30;80.05
5966;BME280;3009;43.224;27.976;2023-05-14T00:33:01;101182.78;;;9.36;79.93
5966;BME280;3009;43.224;27.976;2023-05-14T00:35:29;101186.78;;;9.34;79.84
5966;BME280;3009;43.224;27.976;2023-05-14T00:38:01;101192.91;;;9.39;79.24
5966;BME280;3009;43.224;27.976;2023-05-14T00:40:29;101190.75;;;9.42;78.38
5966;BME280;3009;43.224;27.976;2023-05-14T00:42:59;101184.59;;;9.41;78.44
5966;BME280;3009;43.224;27.976;2023-05-14T00:45:27;101185.69;;;9.40;77.79
5966;BME280;3009;43.224;27.976;2023-05-14T00:47:56;101184.59;;;9.41;77.93
5966;BME280;3009;43.224;27.976;2023-05-14T00:50:25;101185.13;;;9.43;77.46
5966;BME280;3009;43.224;27.976;2023-05-14T00:52:53;101183.75;;;9.46;77.11
5966;BME280;3009;43.224;27.976;2023-05-14T00:55:22;101191.75;;;9.51;75.30
5966;BME280;3009;43.224;27.976;2023-05-14T00:57:51;101186.94;;;9.53;73.04
5966;BME280;3009;43.224;27.976;2023-05-14T01:00:22;101189.88;;;9.51;70.94
5966;BME280;3009;43.224;27.976;2023-05-14T01:02:50;101182.56;;;9.62;69.24
5966;BME280;3009;43.224;27.976;2023-05-14T01:05:20;101190.53;;;9.67;67.22
5966;BME280;3009;43.224;27.976;2023-05-14T01:07:58;101186.28;;;9.66;66.39
5966;BME280;3009;43.224;27.976;2023-05-14T01:10:35;101190.81;;;9.66;68.09
5966;BME280;3009;43.224;27.976;2023-05-14T01:13:12;101190.13;;;9.55;68.51
5966;BME280;3009;43.224;27.976;2023-05-14T01:15:44;101187.16;;;9.56;68.48
5966;BME280;3009;43.224;27.976;2023-05-14T01:18:16;101181.56;;;9.53;70.12
5966;BME280;3009;43.224;27.976;2023-05-14T01:20:45;101180.13;;;9.31;75.81
5966;BME280;3009;43.224;27.976;2023-05-14T01:23:18;101177.56;;;9.16;76.93
5966;BME280;3009;43.224;27.976;2023-05-14T01:25:46;101170.09;;;9.13;77.19
5966;BME280;3009;43.224;27.976;2023-05-14T01:28:16;101175.72;;;9.11;75.83
5966;BME280;3009;43.224;27.976;2023-05-14T01:30:48;101185.06;;;9.14;75.36
5966;BME280;3009;43.224;27.976;2023-05-14T01:33:21;101183.19;;;9.14;75.41
5966;BME280;3009;43.224;27.976;2023-05-14T01:35:53;101181.34;;;9.10;76.21
5966;BME280;3009;43.224;27.976;2023-05-14T01:38:23;101183.25;;;9.04;75.88
5966;BME280;3009;43.224;27.976;2023-05-14T01:40:52;101185.19;;;8.98;76.66
5966;BME280;3009;43.224;27.976;2023-05-14T01:43:21;101182.22;;;9.00;76.64
5966;BME280;3009;43.224;27.976;2023-05-14T01:45:50;101184.09;;;8.99;77.41
5966;BME280;3009;43.224;27.976;2023-05-14T01:48:21;101179.28;;;8.96;78.17
5966;BME280;3009;43.224;27.976;2023-05-14T01:50:49;101181.97;;;8.96;78.44
5966;BME280;3009;43.224;27.976;2023-05-14T01:53:18;101186.53;;;8.96;79.45
5966;BME280;3009;43.224;27.976;2023-05-14T01:55:47;101187.31;;;8.96;80.79
5966;BME280;3009;43.224;27.976;2023-05-14T01:58:16;101175.53;;;8.97;80.98
5966;BME280;3009;43.224;27.976;2023-05-14T02:00:44;101173.16;;;8.96;81.08
5966;BME280;3009;43.224;27.976;2023-05-14T02:03:13;101179.06;;;8.93;81.85
5966;BME280;3009;43.224;27.976;2023-05-14T02:05:41;101178.78;;;8.89;84.83
5966;BME280;3009;43.224;27.976;2023-05-14T02:08:09;101184.41;;;8.87;86.11
5966;BME280;3009;43.224;27.976;2023-05-14T02:10:38;101180.72;;;8.83;86.67
5966;BME280;3009;43.224;27.976;2023-05-14T02:13:07;101193.00;;;8.84;86.09
5966;BME280;3009;43.224;27.976;2023-05-14T02:15:37;101190.31;;;8.84;85.18
5966;BME280;3009;43.224;27.976;2023-05-14T02:18:05;101183.66;;;8.82;85.23
5966;BME280;3009;43.224;27.976;2023-05-14T02:20:34;101186.34;;;8.77;86.95
5966;BME280;3009;43.224;27.976;2023-05-14T02:23:02;101196.50;;;8.80;87.92
5966;BME280;3009;43.224;27.976;2023-05-14T02:25:31;101198.66;;;8.78;89.23
5966;BME280;3009;43.224;27.976;2023-05-14T02:27:59;101191.16;;;8.80;92.00
5966;BME280;3009;43.224;27.976;2023-05-14T02:30:29;101190.03;;;8.86;98.81
5966;BME280;3009;43.224;27.976;2023-05-14T02:32:57;101187.63;;;8.84;99.10
5966;BME280;3009;43.224;27.976;2023-05-14T02:35:26;101193.81;;;8.85;100.00
5966;BME280;3009;43.224;27.976;2023-05-14T02:37:54;101185.78;;;8.85;100.00
5966;BME280;3009;43.224;27.976;2023-05-14T02:40:22;101191.88;;;8.96;100.00
5966;BME280;3009;43.224;27.976;2023-05-14T02:42:51;101195.38;;;8.91;100.00
5966;BME280;3009;43.224;27.976;2023-05-14T02:45:20;101201.00;;;8.90;100.00
5966;BME280;3009;43.224;27.976;2023-05-14T02:47:49;101204.19;;;8.92;99.05
5966;BME280;3009;43.224;27.976;2023-05-14T02:50:18;101203.13;;;8.93;99.03
5966;BME280;3009;43.224;27.976;2023-05-14T02:52:47;101195.63;;;8.95;100.00
5966;BME280;3009;43.224;27.976;2023-05-14T02:55:15;101201.75;;;9.00;100.00
5966;BME280;3009;43.224;27.976;2023-05-14T02:57:44;101206.78;;;9.07;100.00
5966;BME280;3009;43.224;27.976;2023-05-14T03:00:13;101213.41;;;9.15;100.00
5966;BME280;3009;43.224;27.976;2023-05-14T03:02:41;101199.47;;;9.23;100.00
5966;BME280;3009;43.224;27.976;2023-05-14T03:05:12;101200.41;;;9.37;100.00
5966;BME280;3009;43.224;27.976;2023-05-14T03:07:40;101199.75;;;9.56;100.00
5966;BME280;3009;43.224;27.976;2023-05-14T03:10:09;101197.91;;;9.81;100.00
5966;BME280;3009;43.224;27.976;2023-05-14T03:12:38;101198.66;;;10.40;99.02
5966;BME280;3009;43.224;27.976;2023-05-14T03:15:07;101205.59;;;11.41;89.67
5966;BME280;3009;43.224;27.976;2023-05-14T03:17:36;101211.97;;;12.25;80.16
5966;BME280;3009;43.224;27.976;2023-05-14T03:20:05;101209.78;;;12.41;77.20
5966;BME280;3009;43.224;27.976;2023-05-14T03:22:35;101200.88;;;12.82;74.62
5966;BME280;3009;43.224;27.976;2023-05-14T03:25:04;101209.84;;;13.14;71.51
5966;BME280;3009;43.224;27.976;2023-05-14T03:27:33;101213.91;;;14.02;67.59
5966;BME280;3009;43.224;27.976;2023-05-14T03:30:01;101214.50;;;14.97;62.92
5966;BME280;3009;43.224;27.976;2023-05-14T03:32:29;101216.66;;;15.65;59.88
5966;BME280;3009;43.224;27.976;2023-05-14T03:34:58;101209.25;;;15.09;61.65
5966;BME280;3009;43.224;27.976;2023-05-14T03:37:26;101219.41;;;16.12;58.95
5966;BME280;3009;43.224;27.976;2023-05-14T03:39:56;101222.84;;;16.21;59.26
5966;BME280;3009;43.224;27.976;2023-05-14T03:42:24;101230.63;;;15.93;59.79
5966;BME280;3009;43.224;27.976;2023-05-14T03:44:53;101233.25;;;16.10;59.05
5966;BME280;3009;43.224;27.976;2023-05-14T03:47:21;101242.59;;;17.45;54.64
5966;BME280;3009;43.224;27.976;2023-05-14T03:49:49;101238.31;;;17.77;51.70
5966;BME280;3009;43.224;27.976;2023-05-14T03:52:18;101220.41;;;16.67;59.06
5966;BME280;3009;43.224;27.976;2023-05-14T03:54:46;101218.41;;;15.78;66.65
5966;BME280;3009;43.224;27.976;2023-05-14T03:57:16;101224.06;;;15.94;69.29
5966;BME280;3009;43.224;27.976;2023-05-14T03:59:44;101225.94;;;16.41;69.65
5966;BME280;3009;43.224;27.976;2023-05-14T04:02:13;101228.34;;;17.81;66.30
5966;BME280;3009;43.224;27.976;2023-05-14T04:04:41;101231.38;;;18.38;64.58
5966;BME280;3009;43.224;27.976;2023-05-14T04:07:10;101236.47;;;17.69;68.65
5966;BME280;3009;43.224;27.976;2023-05-14T04:09:38;101236.97;;;18.82;65.18
5966;BME280;3009;43.224;27.976;2023-05-14T04:12:07;101236.19;;;19.95;60.42
5966;BME280;3009;43.224;27.976;2023-05-14T04:14:37;101232.91;;;20.21;58.62
5966;BME280;3009;43.224;27.976;2023-05-14T04:17:05;101240.91;;;19.82;59.53
5966;BME280;3009;43.224;27.976;2023-05-14T04:19:34;101247.59;;;20.16;55.22
5966;BME280;3009;43.224;27.976;2023-05-14T04:22:02;101244.47;;;18.23;60.36
5966;BME280;3009;43.224;27.976;2023-05-14T04:24:31;101246.25;;;19.34;57.84
5966;BME280;3009;43.224;27.976;2023-05-14T04:26:59;101248.25;;;19.09;57.53
5966;BME280;3009;43.224;27.976;2023-05-14T04:29:27;101236.78;;;18.01;61.21
5966;BME280;3009;43.224;27.976;2023-05-14T04:31:57;101233.25;;;17.21;65.89
5966;BME280;3009;43.224;27.976;2023-05-14T04:34:26;101229.69;;;15.71;75.32
5966;BME280;3009;43.224;27.976;2023-05-14T04:36:54;101225.78;;;16.46;72.96
5966;BME280;3009;43.224;27.976;2023-05-14T04:39:23;101232.16;;;18.38;65.03
5966;BME280;3009;43.224;27.976;2023-05-14T04:41:51;101231.31;;;19.00;56.93
5966;BME280;3009;43.224;27.976;2023-05-14T04:44:20;101234.63;;;20.61;53.57
5966;BME280;3009;43.224;27.976;2023-05-14T04:46:48;101235.47;;;21.83;47.69
5966;BME280;3009;43.224;27.976;2023-05-14T04:49:18;101243.28;;;21.84;46.79
5966;BME280;3009;43.224;27.976;2023-05-14T04:51:46;101235.34;;;20.58;48.81
5966;BME280;3009;43.224;27.976;2023-05-14T04:54:15;101236.22;;;20.62;50.07
5966;BME280;3009;43.224;27.976;2023-05-14T04:56:43;101238.50;;;21.54;46.38
5966;BME280;3009;43.224;27.976;2023-05-14T04:59:12;101237.41;;;21.82;44.51
5966;BME280;3009;43.224;27.976;2023-05-14T05:01:40;101236.56;;;20.96;45.08
5966;BME280;3009;43.224;27.976;2023-05-14T05:04:08;101227.38;;;21.04;44.60
5966;BME280;3009;43.224;27.976;2023-05-14T05:06:38;101229.88;;;20.58;48.24
5966;BME280;3009;43.224;27.976;2023-05-14T05:09:07;101233.06;;;21.77;49.25
5966;BME280;3009;43.224;27.976;2023-05-14T05:11:35;101227.00;;;23.70;43.02
5966;BME280;3009;43.224;27.976;2023-05-14T05:14:04;101236.34;;;23.62;37.45
5966;BME280;3009;43.224;27.976;2023-05-14T05:16:33;101237.94;;;22.95;35.50
5966;BME280;3009;43.224;27.976;2023-05-14T05:19:01;101228.13;;;21.64;35.66
5966;BME280;3009;43.224;27.976;2023-05-14T05:21:30;101235.34;;;21.75;34.73
5966;BME280;3009;43.224;27.976;2023-05-14T05:24:00;101240.66;;;24.63;32.34
5966;BME280;3009;43.224;27.976;2023-05-14T05:26:28;101236.94;;;23.44;28.54
5966;BME280;3009;43.224;27.976;2023-05-14T05:28:57;101229.25;;;23.20;28.67
5966;BME280;3009;43.224;27.976;2023-05-14T05:31:26;101234.63;;;23.87;31.00
5966;BME280;3009;43.224;27.976;2023-05-14T05:33:54;101238.84;;;24.26;30.13
5966;BME280;3009;43.224;27.976;2023-05-14T05:36:23;101234.06;;;23.71;29.50
5966;BME280;3009;43.224;27.976;2023-05-14T05:38:51;101230.84;;;24.03;28.24
5966;BME280;3009;43.224;27.976;2023-05-14T05:41:21;101226.72;;;24.27;29.65
5966;BME280;3009;43.224;27.976;2023-05-14T05:43:49;101236.81;;;27.20;27.05
5966;BME280;3009;43.224;27.976;2023-05-14T05:46:18;101229.09;;;28.51;24.11
5966;BME280;3009;43.224;27.976;2023-05-14T05:48:46;101228.66;;;26.95;25.56
5966;BME280;3009;43.224;27.976;2023-05-14T05:51:14;101229.59;;;28.00;25.05
5966;BME280;3009;43.224;27.976;2023-05-14T05:53:43;101234.78;;;29.32;22.59
5966;BME280;3009;43.224;27.976;2023-05-14T05:56:12;101230.72;;;26.65;24.33
5966;BME280;3009;43.224;27.976;2023-05-14T05:58:41;101241.81;;;25.93;24.67
5966;BME280;3009;43.224;27.976;2023-05-14T06:01:10;101240.28;;;27.28;24.05
5966;BME280;3009;43.224;27.976;2023-05-14T06:03:38;101228.03;;;25.39;24.45
5966;BME280;3009;43.224;27.976;2023-05-14T06:06:07;101221.78;;;25.46;24.99
5966;BME280;3009;43.224;27.976;2023-05-14T06:08:35;101230.81;;;26.22;24.03
5966;BME280;3009;43.224;27.976;2023-05-14T06:11:04;101227.25;;;27.43;25.80
5966;BME280;3009;43.224;27.976;2023-05-14T06:13:32;101229.34;;;27.80;27.38
5966;BME280;3009;43.224;27.976;2023-05-14T06:16:02;101241.56;;;27.75;27.04
5966;BME280;3009;43.224;27.976;2023-05-14T06:18:31;101237.72;;;28.53;26.06
5966;BME280;3009;43.224;27.976;2023-05-14T06:20:59;101253.41;;;28.63;29.54
5966;BME280;3009;43.224;27.976;2023-05-14T06:23:28;101247.28;;;26.40;31.72
5966;BME280;3009;43.224;27.976;2023-05-14T06:25:57;101244.16;;;25.95;29.05
5966;BME280;3009;43.224;27.976;2023-05-14T06:28:25;101251.22;;;27.49;27.21
5966;BME280;3009;43.224;27.976;2023-05-14T06:30:53;101238.91;;;28.90;23.33
5966;BME280;3009;43.224;27.976;2023-05-14T06:33:23;101248.19;;;29.34;23.20
5966;BME280;3009;43.224;27.976;2023-05-14T06:35:57;101243.59;;;29.24;20.81
5966;BME280;3009;43.224;27.976;2023-05-14T06:38:25;101239.06;;;29.37;19.55
5966;BME280;3009;43.224;27.976;2023-05-14T06:40:54;101248.06;;;30.16;19.21
5966;BME280;3009;43.224;27.976;2023-05-14T06:43:22;101248.34;;;29.23;22.64
5966;BME280;3009;43.224;27.976;2023-05-14T06:45:51;101244.22;;;29.62;23.35
5966;BME280;3009;43.224;27.976;2023-05-14T06:48:19;101254.19;;;29.80;23.32
5966;BME280;3009;43.224;27.976;2023-05-14T06:50:50;101260.66;;;28.46;23.72
5966;BME280;3009;43.224;27.976;2023-05-14T06:53:18;101258.56;;;28.16;24.24
5966;BME280;3009;43.224;27.976;2023-05-14T06:55:47;101262.34;;;27.20;22.92
5966;BME280;3009;43.224;27.976;2023-05-14T06:58:15;101257.94;;;26.16;25.02
5966;BME280;3009;43.224;27.976;2023-05-14T07:00:43;101251.22;;;26.35;26.14
5966;BME280;3009;43.224;27.976;2023-05-14T07:03:12;101263.53;;;27.27;25.77
5966;BME280;3009;43.224;27.976;2023-05-14T07:05:40;101263.34;;;28.11;25.71
5966;BME280;3009;43.224;27.976;2023-05-14T07:08:12;101260.16;;;26.86;27.09
5966;BME280;3009;43.224;27.976;2023-05-14T07:10:40;101260.31;;;27.99;23.83
5966;BME280;3009;43.224;27.976;2023-05-14T07:13:08;101264.88;;;26.86;25.69
5966;BME280;3009;43.224;27.976;2023-05-14T07:15:37;101262.63;;;25.73;27.03
5966;BME280;3009;43.224;27.976;2023-05-14T07:18:05;101268.94;;;28.04;24.31
5966;BME280;3009;43.224;27.976;2023-05-14T07:20:33;101264.31;;;28.74;24.21
5966;BME280;3009;43.224;27.976;2023-05-14T07:23:02;101271.19;;;28.93;24.16
5966;BME280;3009;43.224;27.976;2023-05-14T07:25:32;101274.22;;;29.02;24.87
5966;BME280;3009;43.224;27.976;2023-05-14T07:28:00;101275.88;;;28.96;24.53
5966;BME280;3009;43.224;27.976;2023-05-14T07:30:29;101277.19;;;29.19;24.69
5966;BME280;3009;43.224;27.976;2023-05-14T07:32:57;101281.03;;;28.56;23.07
5966;BME280;3009;43.224;27.976;2023-05-14T07:35:25;101281.44;;;25.71;28.19
5966;BME280;3009;43.224;27.976;2023-05-14T07:37:54;101288.44;;;25.46;30.71
5966;BME280;3009;43.224;27.976;2023-05-14T07:40:22;101294.78;;;26.48;27.47
5966;BME280;3009;43.224;27.976;2023-05-14T07:42:53;101290.50;;;26.25;26.74
5966;BME280;3009;43.224;27.976;2023-05-14T07:45:22;101283.25;;;25.23;27.29
5966;BME280;3009;43.224;27.976;2023-05-14T07:47:50;101281.81;;;23.36;29.70
5966;BME280;3009;43.224;27.976;2023-05-14T07:50:19;101277.84;;;22.99;31.86
5966;BME280;3009;43.224;27.976;2023-05-14T07:52:48;101281.38;;;22.23;33.48
5966;BME280;3009;43.224;27.976;2023-05-14T07:55:16;101275.28;;;21.84;29.94
5966;BME280;3009;43.224;27.976;2023-05-14T07:57:45;101278.19;;;21.32;31.26
5966;BME280;3009;43.224;27.976;2023-05-14T08:00:15;101295.13;;;21.41;30.31
5966;BME280;3009;43.224;27.976;2023-05-14T08:02:43;101292.94;;;20.25;33.57
5966;BME280;3009;43.224;27.976;2023-05-14T08:05:12;101303.38;;;19.50;31.50
5966;BME280;3009;43.224;27.976;2023-05-14T08:07:41;101298.47;;;19.27;38.64
5966;BME280;3009;43.224;27.976;2023-05-14T08:10:09;101294.34;;;20.18;37.97
5966;BME280;3009;43.224;27.976;2023-05-14T08:12:38;101293.88;;;20.48;37.44
5966;BME280;3009;43.224;27.976;2023-05-14T08:15:07;101302.22;;;20.56;36.65
5966;BME280;3009;43.224;27.976;2023-05-14T08:17:37;101297.56;;;19.92;38.38
5966;BME280;3009;43.224;27.976;2023-05-14T08:20:07;101308.72;;;20.35;39.38
5966;BME280;3009;43.224;27.976;2023-05-14T08:22:36;101305.56;;;19.73;39.76
5966;BME280;3009;43.224;27.976;2023-05-14T08:25:05;101294.59;;;20.29;41.11
5966;BME280;3009;43.224;27.976;2023-05-14T08:27:33;101295.41;;;20.97;39.57
5966;BME280;3009;43.224;27.976;2023-05-14T08:30:02;101290.31;;;20.96;42.26
5966;BME280;3009;43.224;27.976;2023-05-14T08:32:31;101288.34;;;20.45;40.52
5966;BME280;3009;43.224;27.976;2023-05-14T08:35:00;101283.06;;;18.91;39.74
5966;BME280;3009;43.224;27.976;2023-05-14T08:37:29;101279.22;;;18.92;47.49
5966;BME280;3009;43.224;27.976;2023-05-14T08:39:57;101272.69;;;19.21;40.34
5966;BME280;3009;43.224;27.976;2023-05-14T08:42:27;101268.31;;;19.89;38.42
5966;BME280;3009;43.224;27.976;2023-05-14T08:44:59;101263.69;;;20.22;36.59
5966;BME280;3009;43.224;27.976;2023-05-14T08:47:29;101255.53;;;20.57;34.55
5966;BME280;3009;43.224;27.976;2023-05-14T08:50:01;101265.16;;;20.03;35.37
5966;BME280;3009;43.224;27.976;2023-05-14T08:52:33;101261.66;;;20.03;34.78
5966;BME280;3009;43.224;27.976;2023-05-14T08:55:04;101256.28;;;19.90;36.25
5966;BME280;3009;43.224;27.976;2023-05-14T08:57:33;101256.78;;;20.44;34.17
5966;BME280;3009;43.224;27.976;2023-05-14T09:00:02;101262.63;;;19.94;35.42
5966;BME280;3009;43.224;27.976;2023-05-14T09:02:34;101257.16;;;20.42;34.02
5966;BME280;3009;43.224;27.976;2023-05-14T09:05:05;101268.59;;;19.84;31.10
5966;BME280;3009;43.224;27.976;2023-05-14T09:07:35;101269.00;;;19.42;33.84
5966;BME280;3009;43.224;27.976;2023-05-14T09:10:04;101265.41;;;19.82;34.36
5966;BME280;3009;43.224;27.976;2023-05-14T09:12:33;101267.47;;;19.73;36.00
5966;BME280;3009;43.224;27.976;2023-05-14T09:15:02;101266.22;;;19.82;35.85
5966;BME280;3009;43.224;27.976;2023-05-14T09:17:32;101267.00;;;19.26;36.59
5966;BME280;3009;43.224;27.976;2023-05-14T09:20:02;101258.75;;;19.51;33.46
5966;BME280;3009;43.224;27.976;2023-05-14T09:22:33;101260.41;;;18.87;35.94
5966;BME280;3009;43.224;27.976;2023-05-14T09:25:03;101260.25;;;19.08;38.86
5966;BME280;3009;43.224;27.976;2023-05-14T09:27:32;101259.09;;;19.50;38.74
5966;BME280;3009;43.224;27.976;2023-05-14T09:30:08;101266.31;;;19.29;47.22
5966;BME280;3009;43.224;27.976;2023-05-14T09:32:38;101261.13;;;18.59;51.71
5966;BME280;3009;43.224;27.976;2023-05-14T09:35:10;101260.53;;;18.90;47.01
5966;BME280;3009;43.224;27.976;2023-05-14T09:37:42;101263.84;;;19.24;42.85
5966;BME280;3009;43.224;27.976;2023-05-14T09:40:11;101255.28;;;18.98;45.11
5966;BME280;3009;43.224;27.976;2023-05-14T09:42:40;101258.59;;;18.91;48.44
5966;BME280;3009;43.224;27.976;2023-05-14T09:45:09;101266.84;;;18.94;49.96
5966;BME280;3009;43.224;27.976;2023-05-14T09:47:38;101276.34;;;19.01;53.83
5966;BME280;3009;43.224;27.976;2023-05-14T09:50:08;101280.25;;;18.26;55.34
5966;BME280;3009;43.224;27.976;2023-05-14T09:52:37;101287.41;;;17.63;61.77
5966;BME280;3009;43.224;27.976;2023-05-14T09:55:07;101288.94;;;18.31;60.10
5966;BME280;3009;43.224;27.976;2023-05-14T09:57:36;101286.25;;;18.44;64.41
5966;BME280;3009;43.224;27.976;2023-05-14T10:00:06;101278.88;;;18.56;64.14
5966;BME280;3009;43.224;27.976;2023-05-14T10:02:36;101280.91;;;18.72;55.33
5966;BME280;3009;43.224;27.976;2023-05-14T10:05:07;101282.50;;;18.73;53.89
5966;BME280;3009;43.224;27.976;2023-05-14T10:07:38;101279.53;;;19.03;59.33
5966;BME280;3009;43.224;27.976;2023-05-14T10:10:14;101272.88;;;18.63;59.03
5966;BME280;3009;43.224;27.976;2023-05-14T10:12:49;101263.47;;;17.99;64.31
5966;BME280;3009;43.224;27.976;2023-05-14T10:15:21;101270.72;;;17.40;58.63
5966;BME280;3009;43.224;27.976;2023-05-14T10:17:55;101270.69;;;17.95;58.55
5966;BME280;3009;43.224;27.976;2023-05-14T10:20:26;101272.09;;;18.38;68.94
5966;BME280;3009;43.224;27.976;2023-05-14T10:22:56;101274.13;;;18.16;76.81
5966;BME280;3009;43.224;27.976;2023-05-14T10:25:26;101279.78;;;18.48;72.68
5966;BME280;3009;43.224;27.976;2023-05-14T10:27:55;101277.66;;;17.50;77.77
5966;BME280;3009;43.224;27.976;2023-05-14T10:30:24;101264.03;;;17.16;79.09
5966;BME280;3009;43.224;27.976;2023-05-14T10:33:06;101265.41;;;17.65;81.11
5966;BME280;3009;43.224;27.976;2023-05-14T10:35:53;101263.84;;;18.47;74.51
5966;BME280;3009;43.224;27.976;2023-05-14T10:38:24;101251.16;;;18.63;70.40
5966;BME280;3009;43.224;27.976;2023-05-14T10:41:02;101256.00;;;18.08;74.74
5966;BME280;3009;43.224;27.976;2023-05-14T10:43:36;101255.47;;;17.14;83.99
5966;BME280;3009;43.224;27.976;2023-05-14T10:46:05;101251.94;;;17.68;82.44
5966;BME280;3009;43.224;27.976;2023-05-14T10:48:35;101254.06;;;17.63;81.30
5966;BME280;3009;43.224;27.976;2023-05-14T10:51:06;101269.34;;;17.67;85.29
5966;BME280;3009;43.224;27.976;2023-05-14T10:53:37;101266.06;;;17.41;91.04
5966;BME280;3009;43.224;27.976;2023-05-14T10:56:08;101264.63;;;17.43;92.23
5966;BME280;3009;43.224;27.976;2023-05-14T10:58:38;101267.53;;;17.93;86.39
5966;BME280;3009;43.224;27.976;2023-05-14T11:01:08;101258.41;;;18.34;65.72
5966;BME280;3009;43.224;27.976;2023-05-14T11:03:41;101260.19;;;18.80;62.50
5966;BME280;3009;43.224;27.976;2023-05-14T11:06:12;101265.31;;;17.86;77.23
5966;BME280;3009;43.224;27.976;2023-05-14T11:08:40;101271.16;;;18.09;73.31
5966;BME280;3009;43.224;27.976;2023-05-14T11:11:11;101265.31;;;17.52;68.83
5966;BME280;3009;43.224;27.976;2023-05-14T11:13:40;101266.53;;;18.22;63.52
5966;BME280;3009;43.224;27.976;2023-05-14T11:16:10;101260.56;;;18.29;55.87
5966;BME280;3009;43.224;27.976;2023-05-14T11:18:52;101261.78;;;18.06;62.02
5966;BME280;3009;43.224;27.976;2023-05-14T11:21:28;101258.47;;;18.01;61.89
5966;BME280;3009;43.224;27.976;2023-05-14T11:23:59;101239.66;;;17.71;64.68
5966;BME280;3009;43.224;27.976;2023-05-14T11:26:30;101245.34;;;17.57;64.85
5966;BME280;3009;43.224;27.976;2023-05-14T11:28:59;101247.94;;;16.99;63.33
5966;BME280;3009;43.224;27.976;2023-05-14T11:31:27;101245.41;;;17.15;66.54
5966;BME280;3009;43.224;27.976;2023-05-14T11:33:56;101241.56;;;16.95;67.71
5966;BME280;3009;43.224;27.976;2023-05-14T11:36:24;101223.44;;;16.65;70.41
5966;BME280;3009;43.224;27.976;2023-05-14T11:38:53;101226.75;;;17.13;66.99
5966;BME280;3009;43.224;27.976;2023-05-14T11:41:21;101229.88;;;17.58;64.81
5966;BME280;3009;43.224;27.976;2023-05-14T11:43:51;101209.28;;;17.90;61.86
5966;BME280;3009;43.224;27.976;2023-05-14T11:46:20;101210.44;;;17.01;69.65
5966;BME280;3009;43.224;27.976;2023-05-14T11:48:49;101202.59;;;17.08;68.13
5966;BME280;3009;43.224;27.976;2023-05-14T11:51:20;101205.72;;;17.31;64.72
5966;BME280;3009;43.224;27.976;2023-05-14T11:53:48;101205.91;;;17.47;65.42
5966;BME280;3009;43.224;27.976;2023-05-14T11:56:17;101192.72;;;17.25;64.38
5966;BME280;3009;43.224;27.976;2023-05-14T11:58:47;101183.88;;;17.15;66.91
5966;BME280;3009;43.224;27.976;2023-05-14T12:01:18;101185.13;;;16.55;68.17
5966;BME280;3009;43.224;27.976;2023-05-14T12:03:46;101171.28;;;16.98;67.45
5966;BME280;3009;43.224;27.976;2023-05-14T12:06:15;101166.25;;;17.43;65.25
5966;BME280;3009;43.224;27.976;2023-05-14T12:08:46;101161.00;;;17.38;69.20
5966;BME280;3009;43.224;27.976;2023-05-14T12:11:20;101157.06;;;17.35;70.64
5966;BME280;3009;43.224;27.976;2023-05-14T12:13:48;101154.19;;;17.19;63.70
5966;BME280;3009;43.224;27.976;2023-05-14T12:16:19;101148.91;;;17.23;67.47
5966;BME280;3009;43.224;27.976;2023-05-14T12:18:48;101153.19;;;16.90;58.95
5966;BME280;3009;43.224;27.976;2023-05-14T12:21:16;101149.59;;;16.77;53.86
5966;BME280;3009;43.224;27.976;2023-05-14T12:23:45;101150.78;;;17.56;54.92
5966;BME280;3009;43.224;27.976;2023-05-14T12:26:13;101164.19;;;17.98;53.92
5966;BME280;3009;43.224;27.976;2023-05-14T12:28:46;101150.59;;;17.85;61.00
5966;BME280;3009;43.224;27.976;2023-05-14T12:31:14;101147.38;;;17.92;57.92
5966;BME280;3009;43.224;27.976;2023-05-14T12:33:44;101136.78;;;17.66;63.42
5966;BME280;3009;43.224;27.976;2023-05-14T12:36:13;101144.16;;;17.20;64.42
5966;BME280;3009;43.224;27.976;2023-05-14T12:38:45;101137.31;;;17.01;67.48
5966;BME280;3009;43.224;27.976;2023-05-14T12:41:14;101134.09;;;16.87;70.51
5966;BME280;3009;43.224;27.976;2023-05-14T12:43:43;101144.63;;;17.34;67.39
5966;BME280;3009;43.224;27.976;2023-05-14T12:46:12;101147.31;;;16.88;65.75
5966;BME280;3009;43.224;27.976;2023-05-14T12:48:40;101153.22;;;16.60;63.83
5966;BME280;3009;43.224;27.976;2023-05-14T12:51:10;101151.44;;;16.86;67.06
5966;BME280;3009;43.224;27.976;2023-05-14T12:53:38;101139.09;;;17.30;64.28
5966;BME280;3009;43.224;27.976;2023-05-14T12:56:07;101147.59;;;17.41;67.25
5966;BME280;3009;43.224;27.976;2023-05-14T12:58:35;101147.19;;;17.18;69.06
5966;BME280;3009;43.224;27.976;2023-05-14T13:01:04;101151.69;;;17.60;63.80
5966;BME280;3009;43.224;27.976;2023-05-14T13:03:33;101144.72;;;17.71;60.70
5966;BME280;3009;43.224;27.976;2023-05-14T13:06:02;101119.75;;;17.78;59.05
5966;BME280;3009;43.224;27.976;2023-05-14T13:08:32;101119.41;;;18.16;56.97
5966;BME280;3009;43.224;27.976;2023-05-14T13:11:01;101130.06;;;18.09;59.05
5966;BME280;3009;43.224;27.976;2023-05-14T13:13:29;101135.13;;;18.23;55.40